sensor_id;sensor_type;location;lat;lon;timestamp;temperature;humidity
72936;DHT22;61085;48.804;9.228;2023-02-11T00:02:09;0.50;99.90
72936;DHT22;61085;48.804;9.228;2023-02-11T00:04:34;0.50;99.90
72936;DHT22;61085;48.804;9.228;2023-02-11T00:07:00;0.50;99.90
72936;DHT22;61085;48.804;9.228;2023-02-11T00:09:26;0.60;99.90
72936;DHT22;61085;48.804;9.228;2023-02-11T00:11:52;1.00;99.90
72936;DHT22;61085;48.804;9.228;2023-02-11T00:14:17;0.60;99.90
72936;DHT22;61085;48.804;9.228;2023-02-11T00:16:43;0.60;99.90
72936;DHT22;61085;48.804;9.228;2023-02-11T00:19:08;0.50;99.90
72936;DHT22;61085;48.804;9.228;2023-02-11T00:21:34;0.50;99.90
72936;DHT22;61085;48.804;9.228;2023-02-11T00:24:00;0.40;99.90
72936;DHT22;61085;48.804;9.228;2023-02-11T00:26:31;0.40;99.90
72936;DHT22;61085;48.804;9.228;2023-02-11T00:28:58;0.40;99.90
72936;DHT22;61085;48.804;9.228;2023-02-11T00:31:25;0.40;99.90
72936;DHT22;61085;48.804;9.228;2023-02-11T00:33:54;0.40;99.90
72936;DHT22;61085;48.804;9.228;2023-02-11T00:36:24;0.30;99.90
72936;DHT22;61085;48.804;9.228;2023-02-11T00:38:52;0.30;99.90
72936;DHT22;61085;48.804;9.228;2023-02-11T00:41:19;0.30;99.90
72936;DHT22;61085;48.804;9.228;2023-02-11T00:43:45;0.20;99.90
72936;DHT22;61085;48.804;9.228;2023-02-11T00:46:11;0.20;99.90
72936;DHT22;61085;48.804;9.228;2023-02-11T00:48:37;0.20;99.90
72936;DHT22;61085;48.804;9.228;2023-02-11T00:51:03;0.30;99.90
72936;DHT22;61085;48.804;9.228;2023-02-11T00:53:29;0.30;99.90
72936;DHT22;61085;48.804;9.228;2023-02-11T00:55:55;0.20;99.90
72936;DHT22;61085;48.804;9.228;2023-02-11T00:58:21;0.20;99.90
72936;DHT22;61085;48.804;9.228;2023-02-11T01:00:47;0.20;99.90
72936;DHT22;61085;48.804;9.228;2023-02-11T01:03:13;0.20;99.90
72936;DHT22;61085;48.804;9.228;2023-02-11T01:05:39;0.20;99.90
72936;DHT22;61085;48.804;9.228;2023-02-11T01:08:04;0.30;99.90
72936;DHT22;61085;48.804;9.228;2023-02-11T01:10:30;0.20;99.90
72936;DHT22;61085;48.804;9.228;2023-02-11T01:12:56;0.20;99.90
72936;DHT22;61085;48.804;9.228;2023-02-11T01:15:22;0.30;99.90
72936;DHT22;61085;48.804;9.228;2023-02-11T01:17:47;0.20;99.90
72936;DHT22;61085;48.804;9.228;2023-02-11T01:20:17;0.50;99.90
72936;DHT22;61085;48.804;9.228;2023-02-11T01:22:43;0.60;99.90
72936;DHT22;61085;48.804;9.228;2023-02-11T01:25:09;0.60;99.90
72936;DHT22;61085;48.804;9.228;2023-02-11T01:27:35;0.60;99.90
72936;DHT22;61085;48.804;9.228;2023-02-11T01:30:01;0.50;99.90
72936;DHT22;61085;48.804;9.228;2023-02-11T01:32:27;0.40;99.90
72936;DHT22;61085;48.804;9.228;2023-02-11T01:34:53;0.40;99.90
72936;DHT22;61085;48.804;9.228;2023-02-11T01:37:18;0.50;99.90
72936;DHT22;61085;48.804;9.228;2023-02-11T01:39:44;0.50;99.90
72936;DHT22;61085;48.804;9.228;2023-02-11T01:42:15;0.50;99.90
72936;DHT22;61085;48.804;9.228;2023-02-11T01:44:41;0.50;99.90
72936;DHT22;61085;48.804;9.228;2023-02-11T01:47:07;0.50;99.90
72936;DHT22;61085;48.804;9.228;2023-02-11T01:49:54;0.40;99.90
72936;DHT22;61085;48.804;9.228;2023-02-11T01:52:21;0.50;99.90
72936;DHT22;61085;48.804;9.228;2023-02-11T01:54:52;0.40;99.90
72936;DHT22;61085;48.804;9.228;2023-02-11T01:57:39;0.50;99.90
72936;DHT22;61085;48.804;9.228;2023-02-11T02:02:51;0.40;99.90
72936;DHT22;61085;48.804;9.228;2023-02-11T02:10:33;0.60;99.90
72936;DHT22;61085;48.804;9.228;2023-02-11T02:12:59;0.40;99.90
72936;DHT22;61085;48.804;9.228;2023-02-11T02:15:31;0.50;99.90
72936;DHT22;61085;48.804;9.228;2023-02-11T02:23:42;0.40;99.90
72936;DHT22;61085;48.804;9.228;2023-02-11T02:28:58;0.50;99.90
72936;DHT22;61085;48.804;9.228;2023-02-11T02:34:43;0.70;99.90
72936;DHT22;61085;48.804;9.228;2023-02-11T02:37:29;0.60;99.90
72936;DHT22;61085;48.804;9.228;2023-02-11T02:39:58;0.50;99.90
72936;DHT22;61085;48.804;9.228;2023-02-11T02:42:27;0.50;99.90
72936;DHT22;61085;48.804;9.228;2023-02-11T02:44:55;0.40;99.90
72936;DHT22;61085;48.804;9.228;2023-02-11T02:47:20;0.40;99.90
72936;DHT22;61085;48.804;9.228;2023-02-11T02:49:46;0.40;99.90
72936;DHT22;61085;48.804;9.228;2023-02-11T02:52:34;0.30;99.90
72936;DHT22;61085;48.804;9.228;2023-02-11T03:03:47;0.60;99.90
72936;DHT22;61085;48.804;9.228;2023-02-11T03:06:31;0.50;99.90
72936;DHT22;61085;48.804;9.228;2023-02-11T03:09:15;0.50;99.90
72936;DHT22;61085;48.804;9.228;2023-02-11T03:11:44;0.50;99.90
72936;DHT22;61085;48.804;9.228;2023-02-11T03:14:12;0.50;99.90
72936;DHT22;61085;48.804;9.228;2023-02-11T03:16:39;0.70;99.90
72936;DHT22;61085;48.804;9.228;2023-02-11T03:19:14;0.70;99.90
72936;DHT22;61085;48.804;9.228;2023-02-11T03:21:41;0.60;99.90
72936;DHT22;61085;48.804;9.228;2023-02-11T03:24:15;0.60;99.90
72936;DHT22;61085;48.804;9.228;2023-02-11T03:26:53;0.60;99.90
72936;DHT22;61085;48.804;9.228;2023-02-11T03:29:42;0.50;99.90
72936;DHT22;61085;48.804;9.228;2023-02-11T03:32:11;0.40;99.90
72936;DHT22;61085;48.804;9.228;2023-02-11T03:34:46;0.40;99.90
72936;DHT22;61085;48.804;9.228;2023-02-11T03:40:00;0.50;99.90
72936;DHT22;61085;48.804;9.228;2023-02-11T03:42:43;0.50;99.90
72936;DHT22;61085;48.804;9.228;2023-02-11T03:45:13;0.50;99.90
72936;DHT22;61085;48.804;9.228;2023-02-11T03:47:44;0.60;99.90
72936;DHT22;61085;48.804;9.228;2023-02-11T03:50:12;0.60;99.90
72936;DHT22;61085;48.804;9.228;2023-02-11T03:52:39;0.60;99.90
72936;DHT22;61085;48.804;9.228;2023-02-11T03:55:11;0.70;99.90
72936;DHT22;61085;48.804;9.228;2023-02-11T03:57:37;0.70;99.90
72936;DHT22;61085;48.804;9.228;2023-02-11T04:00:04;0.80;99.90
72936;DHT22;61085;48.804;9.228;2023-02-11T04:02:33;0.90;99.90
72936;DHT22;61085;48.804;9.228;2023-02-11T04:05:00;0.90;99.90
72936;DHT22;61085;48.804;9.228;2023-02-11T04:07:26;0.80;99.90
72936;DHT22;61085;48.804;9.228;2023-02-11T04:09:52;0.80;99.90
72936;DHT22;61085;48.804;9.228;2023-02-11T04:12:17;0.90;99.90
72936;DHT22;61085;48.804;9.228;2023-02-11T04:14:43;0.90;99.90
72936;DHT22;61085;48.804;9.228;2023-02-11T04:17:09;0.90;99.90
72936;DHT22;61085;48.804;9.228;2023-02-11T04:19:35;1.00;99.90
72936;DHT22;61085;48.804;9.228;2023-02-11T04:22:01;1.00;99.90
72936;DHT22;61085;48.804;9.228;2023-02-11T04:24:26;1.10;99.90
72936;DHT22;61085;48.804;9.228;2023-02-11T04:26:52;1.10;99.90
72936;DHT22;61085;48.804;9.228;2023-02-11T04:29:18;1.10;99.90
72936;DHT22;61085;48.804;9.228;2023-02-11T04:31:44;1.10;99.90
72936;DHT22;61085;48.804;9.228;2023-02-11T04:34:09;1.20;99.90
72936;DHT22;61085;48.804;9.228;2023-02-11T04:36:35;1.20;99.90
72936;DHT22;61085;48.804;9.228;2023-02-11T04:39:01;1.10;99.90
72936;DHT22;61085;48.804;9.228;2023-02-11T04:41:26;1.10;99.90
72936;DHT22;61085;48.804;9.228;2023-02-11T04:43:52;1.10;99.90
72936;DHT22;61085;48.804;9.228;2023-02-11T04:46:17;1.10;99.90
72936;DHT22;61085;48.804;9.228;2023-02-11T04:48:43;1.20;99.90
72936;DHT22;61085;48.804;9.228;2023-02-11T04:51:09;1.20;99.90
72936;DHT22;61085;48.804;9.228;2023-02-11T04:53:34;1.20;99.90
72936;DHT22;61085;48.804;9.228;2023-02-11T04:56:00;1.30;99.90
72936;DHT22;61085;48.804;9.228;2023-02-11T04:58:29;1.20;99.90
72936;DHT22;61085;48.804;9.228;2023-02-11T05:00:54;1.10;99.90
72936;DHT22;61085;48.804;9.228;2023-02-11T05:03:20;1.20;99.90
72936;DHT22;61085;48.804;9.228;2023-02-11T05:05:45;1.10;99.90
72936;DHT22;61085;48.804;9.228;2023-02-11T05:08:11;1.20;99.90
72936;DHT22;61085;48.804;9.228;2023-02-11T05:10:37;1.10;99.90
72936;DHT22;61085;48.804;9.228;2023-02-11T05:13:03;1.20;99.90
72936;DHT22;61085;48.804;9.228;2023-02-11T05:15:29;1.20;99.90
72936;DHT22;61085;48.804;9.228;2023-02-11T05:17:55;1.20;99.90
72936;DHT22;61085;48.804;9.228;2023-02-11T05:20:21;1.20;99.90
72936;DHT22;61085;48.804;9.228;2023-02-11T05:22:46;1.20;99.90
72936;DHT22;61085;48.804;9.228;2023-02-11T05:25:12;1.10;99.90
72936;DHT22;61085;48.804;9.228;2023-02-11T05:27:38;1.10;99.90
72936;DHT22;61085;48.804;9.228;2023-02-11T05:30:04;1.20;99.90
72936;DHT22;61085;48.804;9.228;2023-02-11T05:32:30;1.10;99.90
72936;DHT22;61085;48.804;9.228;2023-02-11T05:34:56;1.00;99.90
72936;DHT22;61085;48.804;9.228;2023-02-11T05:37:22;0.90;99.90
72936;DHT22;61085;48.804;9.228;2023-02-11T05:39:48;0.90;99.90
72936;DHT22;61085;48.804;9.228;2023-02-11T05:42:13;0.90;99.90
72936;DHT22;61085;48.804;9.228;2023-02-11T05:44:39;0.90;99.90
72936;DHT22;61085;48.804;9.228;2023-02-11T05:47:05;0.90;99.90
72936;DHT22;61085;48.804;9.228;2023-02-11T05:49:32;0.80;99.90
72936;DHT22;61085;48.804;9.228;2023-02-11T05:51:58;1.10;99.90
72936;DHT22;61085;48.804;9.228;2023-02-11T05:54:24;0.80;99.90
72936;DHT22;61085;48.804;9.228;2023-02-11T05:56:49;0.80;99.90
72936;DHT22;61085;48.804;9.228;2023-02-11T05:59:15;1.00;99.90
72936;DHT22;61085;48.804;9.228;2023-02-11T06:01:41;1.10;99.90
72936;DHT22;61085;48.804;9.228;2023-02-11T06:04:06;1.20;99.90
72936;DHT22;61085;48.804;9.228;2023-02-11T06:06:32;1.20;99.90
72936;DHT22;61085;48.804;9.228;2023-02-11T06:08:58;1.30;99.90
72936;DHT22;61085;48.804;9.228;2023-02-11T06:11:23;1.30;99.90
72936;DHT22;61085;48.804;9.228;2023-02-11T06:13:49;1.30;99.90
72936;DHT22;61085;48.804;9.228;2023-02-11T06:16:15;1.30;99.90
72936;DHT22;61085;48.804;9.228;2023-02-11T06:18:41;1.20;99.90
72936;DHT22;61085;48.804;9.228;2023-02-11T06:21:08;1.10;99.90
72936;DHT22;61085;48.804;9.228;2023-02-11T06:23:33;1.10;99.90
72936;DHT22;61085;48.804;9.228;2023-02-11T06:26:04;1.10;99.90
72936;DHT22;61085;48.804;9.228;2023-02-11T06:28:30;1.30;99.90
72936;DHT22;61085;48.804;9.228;2023-02-11T06:30:57;1.40;99.90
72936;DHT22;61085;48.804;9.228;2023-02-11T06:33:22;1.40;99.90
72936;DHT22;61085;48.804;9.228;2023-02-11T06:35:48;1.50;99.90
72936;DHT22;61085;48.804;9.228;2023-02-11T06:38:14;1.40;99.90
72936;DHT22;61085;48.804;9.228;2023-02-11T06:40:39;1.50;99.90
72936;DHT22;61085;48.804;9.228;2023-02-11T06:43:06;1.50;99.90
72936;DHT22;61085;48.804;9.228;2023-02-11T06:45:31;1.60;99.90
72936;DHT22;61085;48.804;9.228;2023-02-11T06:47:57;1.60;99.90
72936;DHT22;61085;48.804;9.228;2023-02-11T06:50:22;1.60;99.90
72936;DHT22;61085;48.804;9.228;2023-02-11T06:52:48;1.60;99.90
72936;DHT22;61085;48.804;9.228;2023-02-11T06:55:14;1.70;99.90
72936;DHT22;61085;48.804;9.228;2023-02-11T06:57:39;1.70;99.90
72936;DHT22;61085;48.804;9.228;2023-02-11T07:00:05;1.70;99.90
72936;DHT22;61085;48.804;9.228;2023-02-11T07:02:31;1.70;99.90
72936;DHT22;61085;48.804;9.228;2023-02-11T07:05:00;1.70;99.90
72936;DHT22;61085;48.804;9.228;2023-02-11T07:07:26;1.60;99.90
72936;DHT22;61085;48.804;9.228;2023-02-11T07:09:52;1.60;99.90
72936;DHT22;61085;48.804;9.228;2023-02-11T07:12:17;1.80;99.90
72936;DHT22;61085;48.804;9.228;2023-02-11T07:14:45;1.90;99.90
72936;DHT22;61085;48.804;9.228;2023-02-11T07:17:10;2.00;99.90
72936;DHT22;61085;48.804;9.228;2023-02-11T07:19:36;2.00;99.90
72936;DHT22;61085;48.804;9.228;2023-02-11T07:22:04;2.00;99.90
72936;DHT22;61085;48.804;9.228;2023-02-11T07:24:30;2.00;99.90
72936;DHT22;61085;48.804;9.228;2023-02-11T07:26:55;2.00;99.90
72936;DHT22;61085;48.804;9.228;2023-02-11T07:29:21;2.00;99.90
72936;DHT22;61085;48.804;9.228;2023-02-11T07:31:46;2.10;99.90
72936;DHT22;61085;48.804;9.228;2023-02-11T07:34:12;2.20;99.90
72936;DHT22;61085;48.804;9.228;2023-02-11T07:36:37;2.20;99.90
72936;DHT22;61085;48.804;9.228;2023-02-11T07:39:03;2.30;99.90
72936;DHT22;61085;48.804;9.228;2023-02-11T07:41:29;2.70;99.90
72936;DHT22;61085;48.804;9.228;2023-02-11T07:43:54;2.90;99.90
72936;DHT22;61085;48.804;9.228;2023-02-11T07:46:23;2.90;99.90
72936;DHT22;61085;48.804;9.228;2023-02-11T07:48:49;3.00;99.90
72936;DHT22;61085;48.804;9.228;2023-02-11T07:51:17;3.00;99.90
72936;DHT22;61085;48.804;9.228;2023-02-11T07:53:44;2.90;99.90
72936;DHT22;61085;48.804;9.228;2023-02-11T07:56:11;2.90;99.90
72936;DHT22;61085;48.804;9.228;2023-02-11T07:58:37;2.80;99.90
72936;DHT22;61085;48.804;9.228;2023-02-11T08:01:04;3.00;99.90
72936;DHT22;61085;48.804;9.228;2023-02-11T08:03:31;3.00;99.90
72936;DHT22;61085;48.804;9.228;2023-02-11T08:05:57;3.10;99.90
72936;DHT22;61085;48.804;9.228;2023-02-11T08:08:25;3.20;99.90
72936;DHT22;61085;48.804;9.228;2023-02-11T08:10:51;3.40;99.70
72936;DHT22;61085;48.804;9.228;2023-02-11T08:13:16;3.70;99.20
72936;DHT22;61085;48.804;9.228;2023-02-11T08:15:45;4.70;94.60
72936;DHT22;61085;48.804;9.228;2023-02-11T08:18:13;5.20;91.80
72936;DHT22;61085;48.804;9.228;2023-02-11T08:20:39;5.20;91.80
72936;DHT22;61085;48.804;9.228;2023-02-11T08:23:06;5.10;91.60
72936;DHT22;61085;48.804;9.228;2023-02-11T08:25:32;5.00;93.20
72936;DHT22;61085;48.804;9.228;2023-02-11T08:27:57;4.70;92.70
72936;DHT22;61085;48.804;9.228;2023-02-11T08:30:23;4.40;93.40
72936;DHT22;61085;48.804;9.228;2023-02-11T08:32:49;4.20;94.80
72936;DHT22;61085;48.804;9.228;2023-02-11T08:35:15;4.00;95.90
72936;DHT22;61085;48.804;9.228;2023-02-11T08:37:41;4.20;95.90
72936;DHT22;61085;48.804;9.228;2023-02-11T08:40:07;4.30;95.30
72936;DHT22;61085;48.804;9.228;2023-02-11T08:42:33;4.50;94.60
72936;DHT22;61085;48.804;9.228;2023-02-11T08:44:58;5.40;93.00
72936;DHT22;61085;48.804;9.228;2023-02-11T08:47:24;6.50;86.60
72936;DHT22;61085;48.804;9.228;2023-02-11T08:49:49;7.30;79.50
72936;DHT22;61085;48.804;9.228;2023-02-11T08:52:15;8.10;72.80
72936;DHT22;61085;48.804;9.228;2023-02-11T08:54:40;8.50;66.30
72936;DHT22;61085;48.804;9.228;2023-02-11T08:57:06;8.40;64.90
72936;DHT22;61085;48.804;9.228;2023-02-11T08:59:32;7.80;69.40
72936;DHT22;61085;48.804;9.228;2023-02-11T09:01:57;7.20;73.80
72936;DHT22;61085;48.804;9.228;2023-02-11T09:04:23;6.80;77.50
72936;DHT22;61085;48.804;9.228;2023-02-11T09:06:49;6.40;81.70
72936;DHT22;61085;48.804;9.228;2023-02-11T09:09:15;6.30;81.90
72936;DHT22;61085;48.804;9.228;2023-02-11T09:11:42;5.90;86.20
72936;DHT22;61085;48.804;9.228;2023-02-11T09:14:18;6.00;87.20
72936;DHT22;61085;48.804;9.228;2023-02-11T09:16:44;5.60;88.40
72936;DHT22;61085;48.804;9.228;2023-02-11T09:19:10;5.70;89.00
72936;DHT22;61085;48.804;9.228;2023-02-11T09:21:36;5.30;90.90
72936;DHT22;61085;48.804;9.228;2023-02-11T09:24:01;5.50;91.70
72936;DHT22;61085;48.804;9.228;2023-02-11T09:26:29;5.50;90.80
72936;DHT22;61085;48.804;9.228;2023-02-11T09:28:55;5.40;91.40
72936;DHT22;61085;48.804;9.228;2023-02-11T09:31:23;5.50;92.90
72936;DHT22;61085;48.804;9.228;2023-02-11T09:33:51;5.40;93.40
72936;DHT22;61085;48.804;9.228;2023-02-11T09:36:26;5.50;93.50
72936;DHT22;61085;48.804;9.228;2023-02-11T09:38:54;5.70;91.60
72936;DHT22;61085;48.804;9.228;2023-02-11T09:43:55;5.90;90.50
72936;DHT22;61085;48.804;9.228;2023-02-11T09:46:22;6.00;90.50
72936;DHT22;61085;48.804;9.228;2023-02-11T09:48:51;6.10;90.00
72936;DHT22;61085;48.804;9.228;2023-02-11T09:54:47;6.20;90.10
72936;DHT22;61085;48.804;9.228;2023-02-11T09:57:08;6.30;89.50
72936;DHT22;61085;48.804;9.228;2023-02-11T09:59:34;6.30;90.00
72936;DHT22;61085;48.804;9.228;2023-02-11T10:02:05;6.20;90.00
72936;DHT22;61085;48.804;9.228;2023-02-11T10:13:02;6.90;87.00
72936;DHT22;61085;48.804;9.228;2023-02-11T10:15:44;6.90;85.40
72936;DHT22;61085;48.804;9.228;2023-02-11T10:21:16;7.00;87.20
72936;DHT22;61085;48.804;9.228;2023-02-11T10:23:47;7.30;89.80
72936;DHT22;61085;48.804;9.228;2023-02-11T10:26:18;7.40;84.70
72936;DHT22;61085;48.804;9.228;2023-02-11T10:28:47;7.30;83.40
72936;DHT22;61085;48.804;9.228;2023-02-11T10:31:26;7.00;85.40
72936;DHT22;61085;48.804;9.228;2023-02-11T10:34:07;7.20;87.20
72936;DHT22;61085;48.804;9.228;2023-02-11T10:36:35;7.30;84.80
72936;DHT22;61085;48.804;9.228;2023-02-11T10:41:42;7.50;86.00
72936;DHT22;61085;48.804;9.228;2023-02-11T10:44:20;7.80;82.80
72936;DHT22;61085;48.804;9.228;2023-02-11T10:46:48;7.60;81.30
72936;DHT22;61085;48.804;9.228;2023-02-11T10:49:34;7.40;83.20
72936;DHT22;61085;48.804;9.228;2023-02-11T10:52:25;7.50;82.80
72936;DHT22;61085;48.804;9.228;2023-02-11T10:55:16;7.50;83.30
72936;DHT22;61085;48.804;9.228;2023-02-11T10:57:55;7.60;83.50
72936;DHT22;61085;48.804;9.228;2023-02-11T11:00:36;7.70;83.80
72936;DHT22;61085;48.804;9.228;2023-02-11T11:03:23;7.80;84.90
72936;DHT22;61085;48.804;9.228;2023-02-11T11:05:56;8.00;81.10
72936;DHT22;61085;48.804;9.228;2023-02-11T11:08:40;8.10;82.30
72936;DHT22;61085;48.804;9.228;2023-02-11T11:11:09;8.30;79.10
72936;DHT22;61085;48.804;9.228;2023-02-11T11:13:38;8.10;79.70
72936;DHT22;61085;48.804;9.228;2023-02-11T11:18:39;8.10;81.40
72936;DHT22;61085;48.804;9.228;2023-02-11T11:21:11;8.20;81.50
72936;DHT22;61085;48.804;9.228;2023-02-11T11:23:38;8.40;79.80
72936;DHT22;61085;48.804;9.228;2023-02-11T11:26:12;8.20;81.60
72936;DHT22;61085;48.804;9.228;2023-02-11T11:28:40;8.30;80.90
72936;DHT22;61085;48.804;9.228;2023-02-11T11:31:13;8.50;79.90
72936;DHT22;61085;48.804;9.228;2023-02-11T11:33:41;8.70;78.50
72936;DHT22;61085;48.804;9.228;2023-02-11T11:36:09;8.80;77.30
72936;DHT22;61085;48.804;9.228;2023-02-11T11:38:41;9.00;76.40
72936;DHT22;61085;48.804;9.228;2023-02-11T11:46:42;9.00;78.10
72936;DHT22;61085;48.804;9.228;2023-02-11T11:49:28;9.20;76.40
72936;DHT22;61085;48.804;9.228;2023-02-11T11:54:46;9.50;74.50
72936;DHT22;61085;48.804;9.228;2023-02-11T11:57:17;9.10;75.40
72936;DHT22;61085;48.804;9.228;2023-02-11T11:59:44;8.90;78.50
72936;DHT22;61085;48.804;9.228;2023-02-11T12:02:46;9.30;77.60
72936;DHT22;61085;48.804;9.228;2023-02-11T12:21:27;9.60;79.90
72936;DHT22;61085;48.804;9.228;2023-02-11T12:35:21;9.50;85.70
72936;DHT22;61085;48.804;9.228;2023-02-11T13:35:36;9.70;93.20
72936;DHT22;61085;48.804;9.228;2023-02-11T13:38:04;9.60;93.50
72936;DHT22;61085;48.804;9.228;2023-02-11T13:40:34;9.40;94.00
72936;DHT22;61085;48.804;9.228;2023-02-11T13:43:02;9.60;94.30
72936;DHT22;61085;48.804;9.228;2023-02-11T13:45:47;9.70;93.80
72936;DHT22;61085;48.804;9.228;2023-02-11T13:48:37;9.70;93.40
72936;DHT22;61085;48.804;9.228;2023-02-11T13:51:07;9.60;93.20
72936;DHT22;61085;48.804;9.228;2023-02-11T13:53:54;9.50;93.90
72936;DHT22;61085;48.804;9.228;2023-02-11T13:56:38;9.30;96.40
72936;DHT22;61085;48.804;9.228;2023-02-11T14:05:08;9.70;93.90
72936;DHT22;61085;48.804;9.228;2023-02-11T14:10:54;9.70;93.30
72936;DHT22;61085;48.804;9.228;2023-02-11T14:13:31;9.70;93.50
72936;DHT22;61085;48.804;9.228;2023-02-11T14:16:10;9.70;93.30
72936;DHT22;61085;48.804;9.228;2023-02-11T14:23:42;9.80;93.40
72936;DHT22;61085;48.804;9.228;2023-02-11T14:28:53;10.00;92.70
72936;DHT22;61085;48.804;9.228;2023-02-11T14:31:25;9.90;92.70
72936;DHT22;61085;48.804;9.228;2023-02-11T14:37:09;10.20;94.80
72936;DHT22;61085;48.804;9.228;2023-02-11T14:42:16;10.20;90.80
72936;DHT22;61085;48.804;9.228;2023-02-11T14:44:46;10.20;90.30
72936;DHT22;61085;48.804;9.228;2023-02-11T14:47:22;10.20;89.90
72936;DHT22;61085;48.804;9.228;2023-02-11T14:49:48;10.20;88.90
72936;DHT22;61085;48.804;9.228;2023-02-11T14:52:33;10.30;87.20
72936;DHT22;61085;48.804;9.228;2023-02-11T14:55:13;10.40;87.40
72936;DHT22;61085;48.804;9.228;2023-02-11T14:57:41;10.30;89.00
72936;DHT22;61085;48.804;9.228;2023-02-11T15:00:21;10.20;92.70
72936;DHT22;61085;48.804;9.228;2023-02-11T15:02:47;10.20;91.00
72936;DHT22;61085;48.804;9.228;2023-02-11T15:07:46;10.20;90.50
72936;DHT22;61085;48.804;9.228;2023-02-11T15:10:35;10.00;90.50
72936;DHT22;61085;48.804;9.228;2023-02-11T15:13:03;9.80;90.40
72936;DHT22;61085;48.804;9.228;2023-02-11T15:15:30;9.80;90.70
72936;DHT22;61085;48.804;9.228;2023-02-11T15:18:01;9.70;90.80
72936;DHT22;61085;48.804;9.228;2023-02-11T15:20:29;9.60;91.10
72936;DHT22;61085;48.804;9.228;2023-02-11T15:23:03;9.60;91.10
72936;DHT22;61085;48.804;9.228;2023-02-11T15:25:30;9.50;91.30
72936;DHT22;61085;48.804;9.228;2023-02-11T15:27:56;9.50;91.80
72936;DHT22;61085;48.804;9.228;2023-02-11T15:35:24;9.30;92.20
72936;DHT22;61085;48.804;9.228;2023-02-11T15:37:50;9.30;92.50
72936;DHT22;61085;48.804;9.228;2023-02-11T15:40:21;9.20;92.70
72936;DHT22;61085;48.804;9.228;2023-02-11T15:43:00;9.10;93.40
72936;DHT22;61085;48.804;9.228;2023-02-11T15:48:12;9.20;93.90
72936;DHT22;61085;48.804;9.228;2023-02-11T15:50:39;9.20;93.70
72936;DHT22;61085;48.804;9.228;2023-02-11T15:58:25;9.00;94.70
72936;DHT22;61085;48.804;9.228;2023-02-11T16:00:52;8.90;94.70
72936;DHT22;61085;48.804;9.228;2023-02-11T16:03:27;8.80;95.10
72936;DHT22;61085;48.804;9.228;2023-02-11T16:08:39;8.80;95.80
72936;DHT22;61085;48.804;9.228;2023-02-11T16:11:26;8.80;95.90
72936;DHT22;61085;48.804;9.228;2023-02-11T16:13:53;8.70;95.90
72936;DHT22;61085;48.804;9.228;2023-02-11T16:16:26;8.60;96.00
72936;DHT22;61085;48.804;9.228;2023-02-11T16:18:54;8.60;96.40
72936;DHT22;61085;48.804;9.228;2023-02-11T16:21:33;8.60;96.70
72936;DHT22;61085;48.804;9.228;2023-02-11T16:24:04;8.50;97.10
72936;DHT22;61085;48.804;9.228;2023-02-11T16:26:34;8.50;97.10
72936;DHT22;61085;48.804;9.228;2023-02-11T16:29:25;8.50;97.10
72936;DHT22;61085;48.804;9.228;2023-02-11T16:31:53;8.50;97.40
72936;DHT22;61085;48.804;9.228;2023-02-11T16:34:24;8.40;97.10
72936;DHT22;61085;48.804;9.228;2023-02-11T16:36:50;8.40;97.90
72936;DHT22;61085;48.804;9.228;2023-02-11T16:39:17;8.30;97.40
72936;DHT22;61085;48.804;9.228;2023-02-11T16:41:43;8.20;98.00
72936;DHT22;61085;48.804;9.228;2023-02-11T16:44:11;8.20;98.50
72936;DHT22;61085;48.804;9.228;2023-02-11T16:46:37;8.20;98.50
72936;DHT22;61085;48.804;9.228;2023-02-11T16:49:32;8.20;98.70
72936;DHT22;61085;48.804;9.228;2023-02-11T16:51:59;8.20;98.80
72936;DHT22;61085;48.804;9.228;2023-02-11T16:54:31;8.10;99.10
72936;DHT22;61085;48.804;9.228;2023-02-11T16:56:57;8.10;99.20
72936;DHT22;61085;48.804;9.228;2023-02-11T16:59:23;8.20;99.10
72936;DHT22;61085;48.804;9.228;2023-02-11T17:01:49;8.20;99.10
72936;DHT22;61085;48.804;9.228;2023-02-11T17:04:34;8.20;98.90
72936;DHT22;61085;48.804;9.228;2023-02-11T17:07:00;8.20;99.20
72936;DHT22;61085;48.804;9.228;2023-02-11T17:09:26;8.10;99.40
72936;DHT22;61085;48.804;9.228;2023-02-11T17:11:55;8.20;99.90
72936;DHT22;61085;48.804;9.228;2023-02-11T17:14:21;8.30;99.90
72936;DHT22;61085;48.804;9.228;2023-02-11T17:16:47;8.10;99.80
72936;DHT22;61085;48.804;9.228;2023-02-11T17:19:15;8.00;99.90
72936;DHT22;61085;48.804;9.228;2023-02-11T17:21:42;8.00;99.90
72936;DHT22;61085;48.804;9.228;2023-02-11T17:24:08;8.00;99.90
72936;DHT22;61085;48.804;9.228;2023-02-11T17:26:35;8.00;99.90
72936;DHT22;61085;48.804;9.228;2023-02-11T17:29:05;7.90;99.90
72936;DHT22;61085;48.804;9.228;2023-02-11T17:31:31;8.00;99.90
72936;DHT22;61085;48.804;9.228;2023-02-11T17:33:57;8.00;99.90
72936;DHT22;61085;48.804;9.228;2023-02-11T17:36:23;8.10;99.90
72936;DHT22;61085;48.804;9.228;2023-02-11T17:38:48;8.00;99.90
72936;DHT22;61085;48.804;9.228;2023-02-11T17:41:16;8.00;99.90
72936;DHT22;61085;48.804;9.228;2023-02-11T17:43:41;8.00;99.90
72936;DHT22;61085;48.804;9.228;2023-02-11T17:46:08;8.00;99.90
72936;DHT22;61085;48.804;9.228;2023-02-11T17:48:38;7.90;99.90
72936;DHT22;61085;48.804;9.228;2023-02-11T17:51:04;8.00;99.90
72936;DHT22;61085;48.804;9.228;2023-02-11T17:53:30;7.90;99.90
72936;DHT22;61085;48.804;9.228;2023-02-11T17:55:56;8.00;99.90
72936;DHT22;61085;48.804;9.228;2023-02-11T17:58:22;8.00;99.90
72936;DHT22;61085;48.804;9.228;2023-02-11T18:00:57;7.90;99.90
72936;DHT22;61085;48.804;9.228;2023-02-11T18:03:49;7.90;99.90
72936;DHT22;61085;48.804;9.228;2023-02-11T18:06:15;8.00;99.90
72936;DHT22;61085;48.804;9.228;2023-02-11T18:08:40;7.90;99.90
72936;DHT22;61085;48.804;9.228;2023-02-11T18:11:11;7.90;99.90
72936;DHT22;61085;48.804;9.228;2023-02-11T18:13:39;8.10;99.90
72936;DHT22;61085;48.804;9.228;2023-02-11T18:16:06;7.90;99.90
72936;DHT22;61085;48.804;9.228;2023-02-11T18:18:40;7.90;99.90
72936;DHT22;61085;48.804;9.228;2023-02-11T18:21:06;8.10;99.90
72936;DHT22;61085;48.804;9.228;2023-02-11T18:23:35;7.90;99.90
72936;DHT22;61085;48.804;9.228;2023-02-11T18:26:00;7.90;99.90
72936;DHT22;61085;48.804;9.228;2023-02-11T18:28:30;7.90;99.90
72936;DHT22;61085;48.804;9.228;2023-02-11T18:30:57;7.80;99.90
72936;DHT22;61085;48.804;9.228;2023-02-11T18:33:23;7.80;99.90
72936;DHT22;61085;48.804;9.228;2023-02-11T18:35:48;7.80;99.90
72936;DHT22;61085;48.804;9.228;2023-02-11T18:38:14;8.00;99.90
72936;DHT22;61085;48.804;9.228;2023-02-11T18:40:40;7.80;99.90
72936;DHT22;61085;48.804;9.228;2023-02-11T18:43:05;7.80;99.90
72936;DHT22;61085;48.804;9.228;2023-02-11T18:45:31;7.80;99.90
72936;DHT22;61085;48.804;9.228;2023-02-11T18:47:57;7.80;99.90
72936;DHT22;61085;48.804;9.228;2023-02-11T18:50:26;7.90;99.90
72936;DHT22;61085;48.804;9.228;2023-02-11T18:52:51;7.80;99.90
72936;DHT22;61085;48.804;9.228;2023-02-11T18:55:17;7.90;99.90
72936;DHT22;61085;48.804;9.228;2023-02-11T18:57:45;7.80;99.90
72936;DHT22;61085;48.804;9.228;2023-02-11T19:00:11;7.80;99.90
72936;DHT22;61085;48.804;9.228;2023-02-11T19:02:36;7.80;99.90
72936;DHT22;61085;48.804;9.228;2023-02-11T19:05:03;7.80;99.90